createdAt,value
2023-03-29T00:01:35.210Z,-1.00
2023-03-29T00:04:05.568Z,-1.03
2023-03-29T00:06:33.921Z,-1.04
2023-03-29T00:09:04.801Z,-1.06
2023-03-29T00:11:33.360Z,-1.07
2023-03-29T00:14:01.385Z,-1.09
2023-03-29T00:16:29.686Z,-1.11
2023-03-29T00:18:59.299Z,-1.12
2023-03-29T00:21:27.271Z,-1.14
2023-03-29T00:23:55.709Z,-1.16
2023-03-29T00:26:23.780Z,-1.18
2023-03-29T00:28:51.658Z,-1.20
2023-03-29T00:31:19.759Z,-1.21
2023-03-29T00:33:48.118Z,-1.22
2023-03-29T00:36:16.101Z,-1.24
2023-03-29T00:38:44.000Z,-1.25
2023-03-29T00:41:12.412Z,-1.27
2023-03-29T00:43:55.311Z,-1.29
2023-03-29T00:46:24.333Z,-1.31
2023-03-29T00:48:55.366Z,-1.33
2023-03-29T00:51:26.235Z,-1.36
2023-03-29T00:53:57.894Z,-1.38
2023-03-29T00:56:30.996Z,-1.40
2023-03-29T00:59:03.089Z,-1.43
2023-03-29T01:01:37.459Z,-1.44
2023-03-29T01:04:18.774Z,-1.46
2023-03-29T01:06:53.148Z,-1.48
2023-03-29T01:09:24.128Z,-1.49
2023-03-29T01:11:55.634Z,-1.51
2023-03-29T01:14:33.122Z,-1.52
2023-03-29T01:17:01.410Z,-1.54
2023-03-29T01:19:38.357Z,-1.55
2023-03-29T01:22:17.700Z,-1.58
2023-03-29T01:25:00.506Z,-1.59
2023-03-29T01:27:49.532Z,-1.61
2023-03-29T01:30:23.016Z,-1.64
2023-03-29T01:32:58.540Z,-1.66
2023-03-29T01:35:35.794Z,-1.68
2023-03-29T01:38:09.473Z,-1.70
2023-03-29T01:40:37.617Z,-1.71
2023-03-29T01:43:16.956Z,-1.73
2023-03-29T01:45:50.273Z,-1.76
2023-03-29T01:48:24.556Z,-1.78
2023-03-29T01:50:55.448Z,-1.79
2023-03-29T01:53:30.261Z,-1.81
2023-03-29T01:56:04.498Z,-1.83
2023-03-29T01:58:38.062Z,-1.85
2023-03-29T02:01:10.082Z,-1.88
2023-03-29T02:03:42.265Z,-1.88
2023-03-29T02:06:14.173Z,-1.89
2023-03-29T02:08:44.179Z,-1.89
2023-03-29T02:11:15.144Z,-1.91
2023-03-29T02:13:43.150Z,-1.92
2023-03-29T02:16:13.914Z,-1.93
2023-03-29T02:18:45.906Z,-1.95
2023-03-29T02:21:23.896Z,-1.96
2023-03-29T02:23:54.343Z,-1.98
2023-03-29T02:26:23.400Z,-1.99
2023-03-29T02:28:52.182Z,-1.99
2023-03-29T02:31:29.036Z,-2.00
2023-03-29T02:34:01.998Z,-2.03
2023-03-29T02:36:35.419Z,-2.05
2023-03-29T02:39:07.514Z,-2.08
2023-03-29T02:41:37.753Z,-2.09
2023-03-29T02:44:08.275Z,-2.11
2023-03-29T02:46:37.520Z,-2.11
2023-03-29T02:49:06.097Z,-2.12
2023-03-29T02:51:36.037Z,-2.14
2023-03-29T02:54:11.341Z,-2.14
2023-03-29T02:56:44.187Z,-2.15
2023-03-29T02:59:12.425Z,-2.14
2023-03-29T03:01:42.461Z,-2.14
2023-03-29T03:04:11.545Z,-2.16
2023-03-29T03:06:39.711Z,-2.17
2023-03-29T03:09:09.705Z,-2.17
2023-03-29T03:11:39.826Z,-2.19
2023-03-29T03:14:09.127Z,-2.20
2023-03-29T03:16:37.379Z,-2.22
2023-03-29T03:19:05.728Z,-2.22
2023-03-29T03:21:34.594Z,-2.22
2023-03-29T03:24:02.567Z,-2.22
2023-03-29T03:26:30.707Z,-2.21
2023-03-29T03:29:00.208Z,-2.22
2023-03-29T03:31:46.914Z,-2.21
2023-03-29T03:34:34.040Z,-2.22
2023-03-29T03:37:02.891Z,-2.23
2023-03-29T03:39:32.948Z,-2.25
2023-03-29T03:42:01.494Z,-2.25
2023-03-29T03:44:29.911Z,-2.26
2023-03-29T03:47:16.753Z,-2.26
2023-03-29T03:49:45.148Z,-2.26
2023-03-29T03:52:14.007Z,-2.26
2023-03-29T03:54:42.471Z,-2.26
2023-03-29T03:57:32.549Z,-2.26
2023-03-29T04:00:00.798Z,-2.25
2023-03-29T04:02:41.247Z,-2.25
2023-03-29T04:05:09.584Z,-2.24
2023-03-29T04:07:53.622Z,-2.24
2023-03-29T04:10:52.712Z,-2.23
2023-03-29T04:13:25.819Z,-2.22
2023-03-29T04:16:12.280Z,-2.21
2023-03-29T04:18:40.552Z,-2.19
2023-03-29T04:21:09.118Z,-2.19
2023-03-29T04:23:37.281Z,-2.17
2023-03-29T04:26:07.191Z,-2.16
2023-03-29T04:28:45.661Z,-2.15
2023-03-29T04:31:34.598Z,-2.13
2023-03-29T04:34:16.277Z,-2.10
2023-03-29T04:36:46.114Z,-2.07
2023-03-29T04:39:19.621Z,-2.03
2023-03-29T04:41:51.547Z,-1.99
2023-03-29T04:44:27.501Z,-1.93
2023-03-29T04:46:59.303Z,-1.87
2023-03-29T04:49:35.918Z,-1.81
2023-03-29T04:52:08.445Z,-1.70
2023-03-29T04:54:38.368Z,-1.20
2023-03-29T04:57:16.805Z,-0.34
2023-03-29T05:00:14.312Z,0.06
2023-03-29T05:03:00.380Z,1.06
2023-03-29T05:05:29.684Z,2.24
2023-03-29T05:08:02.655Z,3.65
2023-03-29T05:10:45.720Z,5.21
2023-03-29T05:13:16.178Z,6.56
2023-03-29T05:15:44.128Z,7.86
2023-03-29T05:18:12.088Z,9.07
2023-03-29T05:20:41.742Z,10.18
2023-03-29T05:23:10.269Z,11.21
2023-03-29T05:25:58.612Z,12.29
2023-03-29T05:28:26.828Z,13.19
2023-03-29T05:31:01.723Z,14.05
2023-03-29T05:33:30.227Z,14.89
2023-03-29T05:36:03.156Z,15.61
2023-03-29T05:38:32.347Z,16.30
2023-03-29T05:41:00.723Z,17.00
2023-03-29T05:43:35.029Z,17.67
2023-03-29T05:46:03.790Z,18.24
2023-03-29T05:48:31.935Z,18.80
2023-03-29T05:51:00.418Z,19.39
2023-03-29T05:53:29.521Z,20.03
2023-03-29T05:55:57.662Z,20.62
2023-03-29T05:58:28.421Z,21.17
2023-03-29T06:00:57.120Z,21.68
2023-03-29T06:03:58.265Z,22.26
2023-03-29T06:06:31.400Z,22.73
2023-03-29T06:09:02.229Z,23.14
2023-03-29T06:11:35.387Z,23.62
2023-03-29T06:14:38.434Z,24.01
2023-03-29T06:17:15.988Z,24.29
2023-03-29T06:19:44.076Z,24.66
2023-03-29T06:22:14.712Z,24.99
2023-03-29T06:24:43.862Z,25.24
2023-03-29T06:27:18.982Z,25.53
2023-03-29T06:29:47.537Z,25.78
2023-03-29T06:32:16.431Z,26.04
2023-03-29T06:34:50.274Z,26.31
2023-03-29T06:37:40.499Z,26.57
2023-03-29T06:40:29.262Z,26.82
2023-03-29T06:42:57.669Z,27.02
2023-03-29T06:45:44.692Z,27.22
2023-03-29T06:48:28.178Z,27.48
2023-03-29T06:50:56.554Z,27.70
2023-03-29T06:53:27.505Z,27.91
2023-03-29T06:56:04.552Z,28.03
2023-03-29T06:58:49.062Z,28.07
2023-03-29T07:01:39.727Z,28.12
2023-03-29T07:04:15.609Z,28.31
2023-03-29T07:07:07.271Z,28.47
2023-03-29T07:09:39.241Z,28.48
2023-03-29T07:12:30.368Z,28.59
2023-03-29T07:15:00.808Z,28.72
2023-03-29T07:17:49.180Z,28.79
2023-03-29T07:20:17.952Z,28.86
2023-03-29T07:22:50.605Z,29.02
2023-03-29T07:25:19.716Z,29.25
2023-03-29T07:27:48.270Z,29.49
2023-03-29T07:30:20.634Z,29.58
2023-03-29T07:32:51.667Z,29.53
2023-03-29T07:35:30.634Z,29.61
2023-03-29T07:37:59.232Z,29.70
2023-03-29T07:40:27.571Z,29.67
2023-03-29T07:42:58.925Z,29.69
2023-03-29T07:45:29.157Z,29.73
2023-03-29T07:48:10.201Z,29.70
2023-03-29T07:50:49.785Z,29.64
2023-03-29T07:53:20.549Z,29.60
2023-03-29T07:55:49.330Z,29.64
2023-03-29T07:58:35.709Z,29.63
2023-03-29T08:01:07.879Z,29.60
2023-03-29T08:03:59.240Z,29.71
2023-03-29T08:06:48.293Z,29.89
2023-03-29T08:09:17.012Z,29.81
2023-03-29T08:11:45.200Z,29.27
2023-03-29T08:14:25.252Z,28.65
2023-03-29T08:16:59.060Z,27.94
2023-03-29T08:19:27.286Z,27.46
2023-03-29T08:22:04.035Z,27.08
2023-03-29T08:24:46.662Z,26.74
2023-03-29T08:27:15.130Z,26.52
2023-03-29T08:29:43.097Z,26.19
2023-03-29T08:32:11.447Z,25.75
2023-03-29T08:34:39.431Z,25.23
2023-03-29T08:37:18.546Z,24.50
2023-03-29T08:39:48.197Z,23.82
2023-03-29T08:43:03.638Z,23.09
2023-03-29T08:45:44.974Z,22.48
2023-03-29T08:48:23.175Z,22.15
2023-03-29T08:50:55.725Z,21.94
2023-03-29T08:53:30.622Z,21.75
2023-03-29T08:56:17.939Z,21.52
2023-03-29T08:59:17.474Z,21.23
2023-03-29T09:01:48.782Z,21.05
2023-03-29T09:04:22.277Z,20.97
2023-03-29T09:06:54.397Z,20.86
2023-03-29T09:09:31.759Z,20.63
2023-03-29T09:12:12.154Z,20.36
2023-03-29T09:14:57.791Z,20.09
2023-03-29T09:17:38.825Z,19.72
2023-03-29T09:20:22.395Z,19.46
2023-03-29T09:23:04.066Z,19.18
2023-03-29T09:25:59.500Z,18.78
2023-03-29T09:28:50.625Z,18.46
2023-03-29T09:31:22.764Z,18.37
2023-03-29T09:33:57.779Z,18.30
2023-03-29T09:36:46.099Z,18.19
2023-03-29T09:39:15.811Z,18.03
2023-03-29T09:41:50.792Z,17.83
2023-03-29T09:44:30.881Z,17.55
2023-03-29T09:47:08.688Z,17.18
2023-03-29T09:49:43.960Z,16.86
2023-03-29T09:52:15.865Z,16.52
2023-03-29T09:54:46.324Z,16.30
2023-03-29T09:57:33.089Z,16.16
2023-03-29T10:00:05.107Z,16.05
2023-03-29T10:02:41.659Z,15.95
2023-03-29T10:05:17.436Z,15.89
2023-03-29T10:07:50.569Z,15.80
2023-03-29T10:10:25.852Z,15.71
2023-03-29T10:12:57.224Z,15.60
2023-03-29T10:15:30.130Z,15.55
2023-03-29T10:18:00.526Z,15.54
2023-03-29T10:20:28.717Z,15.54
2023-03-29T10:22:57.973Z,15.49
2023-03-29T10:25:29.413Z,15.37
2023-03-29T10:28:04.680Z,15.17
2023-03-29T10:30:37.967Z,14.89
2023-03-29T10:33:15.768Z,14.57
2023-03-29T10:35:46.540Z,14.34
2023-03-29T10:38:18.954Z,14.13
2023-03-29T10:40:49.198Z,13.84
2023-03-29T10:43:24.648Z,13.51
2023-03-29T10:45:54.731Z,13.27
2023-03-29T10:48:28.368Z,13.19
2023-03-29T10:51:00.397Z,13.13
2023-03-29T10:53:31.123Z,13.10
2023-03-29T10:56:11.401Z,13.04
2023-03-29T10:58:55.396Z,12.96
2023-03-29T11:01:34.263Z,12.71
2023-03-29T11:04:20.232Z,12.63
2023-03-29T11:06:59.239Z,12.61
2023-03-29T11:09:42.269Z,12.57
2023-03-29T11:12:20.229Z,12.56
2023-03-29T11:15:00.181Z,12.57
2023-03-29T11:17:50.244Z,12.53
2023-03-29T11:20:27.068Z,12.54
2023-03-29T11:23:07.761Z,12.55
2023-03-29T11:25:47.767Z,12.50
2023-03-29T11:28:29.283Z,12.37
2023-03-29T11:31:05.171Z,12.23
2023-03-29T11:33:50.384Z,12.07
2023-03-29T11:36:25.090Z,11.97
2023-03-29T11:39:03.609Z,11.88
2023-03-29T11:41:34.854Z,11.79
2023-03-29T11:44:05.900Z,11.72
2023-03-29T11:46:39.018Z,11.68
2023-03-29T11:49:14.402Z,11.65
2023-03-29T11:51:46.286Z,11.59
2023-03-29T11:54:21.381Z,11.51
2023-03-29T11:56:55.685Z,11.45
2023-03-29T11:59:30.769Z,11.39
2023-03-29T12:02:08.864Z,11.31
2023-03-29T12:04:42.204Z,11.18
2023-03-29T12:07:17.934Z,11.05
2023-03-29T12:09:52.118Z,10.93
2023-03-29T12:12:24.836Z,10.84
2023-03-29T12:15:02.827Z,10.83
2023-03-29T12:17:39.068Z,10.81
2023-03-29T12:20:14.959Z,10.79
2023-03-29T12:22:46.231Z,10.78
2023-03-29T12:25:20.205Z,10.73
2023-03-29T12:28:01.153Z,10.70
2023-03-29T12:30:39.203Z,10.70
2023-03-29T12:33:21.674Z,10.70
2023-03-29T12:36:10.515Z,10.66
2023-03-29T12:39:04.728Z,10.57
2023-03-29T12:41:53.031Z,10.47
2023-03-29T12:45:01.003Z,10.40
2023-03-29T12:47:41.797Z,10.37
2023-03-29T12:50:23.179Z,10.36
2023-03-29T12:52:51.259Z,10.35
2023-03-29T12:55:29.424Z,10.33
2023-03-29T12:58:07.699Z,10.30
2023-03-29T13:00:45.052Z,10.28
2023-03-29T13:03:28.760Z,10.24
2023-03-29T13:06:02.176Z,10.18
2023-03-29T13:08:35.861Z,10.12
2023-03-29T13:11:05.747Z,10.09
2023-03-29T13:13:39.920Z,10.04
2023-03-29T13:16:16.818Z,9.98
2023-03-29T13:18:56.901Z,9.95
2023-03-29T13:21:32.756Z,9.90
2023-03-29T13:24:13.525Z,9.86
2023-03-29T13:26:50.110Z,9.80
2023-03-29T13:29:42.103Z,9.75
2023-03-29T13:32:27.859Z,9.66
2023-03-29T13:35:03.673Z,9.61
2023-03-29T13:37:40.812Z,9.58
2023-03-29T13:40:31.571Z,9.57
2023-03-29T13:43:08.410Z,9.56
2023-03-29T13:45:38.224Z,9.57
2023-03-29T13:48:24.713Z,9.59
2023-03-29T13:50:55.775Z,9.59
2023-03-29T13:53:28.741Z,9.59
2023-03-29T13:55:59.036Z,9.54
2023-03-29T13:58:37.744Z,9.50
2023-03-29T14:01:13.218Z,9.48
2023-03-29T14:03:45.072Z,9.47
2023-03-29T14:06:17.461Z,9.47
2023-03-29T14:08:48.824Z,9.48
2023-03-29T14:11:22.947Z,9.47
2023-03-29T14:13:54.280Z,9.47
2023-03-29T14:16:26.802Z,9.51
2023-03-29T14:18:58.896Z,9.53
2023-03-29T14:21:27.499Z,9.55
2023-03-29T14:23:59.432Z,9.54
2023-03-29T14:26:31.940Z,9.52
2023-03-29T14:29:02.162Z,9.51
2023-03-29T14:31:34.796Z,9.49
2023-03-29T14:34:06.237Z,9.47
2023-03-29T14:36:38.241Z,9.46
2023-03-29T14:39:12.379Z,9.47
2023-03-29T14:41:46.898Z,9.48
2023-03-29T14:44:15.265Z,9.50
2023-03-29T14:46:46.282Z,9.51
2023-03-29T14:49:17.471Z,9.49
2023-03-29T14:51:47.160Z,9.45
2023-03-29T14:54:21.807Z,9.41
2023-03-29T14:56:50.861Z,9.40
2023-03-29T14:59:26.504Z,9.40
2023-03-29T15:01:54.939Z,9.41
2023-03-29T15:04:23.011Z,9.42
2023-03-29T15:06:52.985Z,9.44
2023-03-29T15:09:31.979Z,9.45
2023-03-29T15:12:01.569Z,9.46
2023-03-29T15:14:33.389Z,9.48
2023-03-29T15:17:04.722Z,9.48
2023-03-29T15:19:33.776Z,9.50
2023-03-29T15:22:10.253Z,9.51
2023-03-29T15:24:43.843Z,9.49
2023-03-29T15:27:15.074Z,9.48
2023-03-29T15:29:46.270Z,9.45
2023-03-29T15:32:22.464Z,9.44
2023-03-29T15:35:00.726Z,9.42
2023-03-29T15:37:29.060Z,9.43
2023-03-29T15:39:57.532Z,9.43
2023-03-29T15:42:26.195Z,9.47
2023-03-29T15:44:56.120Z,9.51
2023-03-29T15:47:24.519Z,9.54
2023-03-29T15:49:52.540Z,9.59
2023-03-29T15:52:20.464Z,9.63
2023-03-29T15:54:48.485Z,9.64
2023-03-29T15:57:17.686Z,9.64
2023-03-29T15:59:45.913Z,9.63
2023-03-29T16:02:15.881Z,9.59
2023-03-29T16:04:44.371Z,9.56
2023-03-29T16:07:16.440Z,9.51
2023-03-29T16:09:45.230Z,9.47
2023-03-29T16:12:15.567Z,9.41
2023-03-29T16:14:43.576Z,9.37
2023-03-29T16:17:12.023Z,9.33
2023-03-29T16:19:40.125Z,9.27
2023-03-29T16:22:08.279Z,9.20
2023-03-29T16:24:36.314Z,9.14
2023-03-29T16:27:04.900Z,9.08
2023-03-29T16:29:34.595Z,9.03
2023-03-29T16:32:05.490Z,8.98
2023-03-29T16:34:35.252Z,8.95
2023-03-29T16:37:05.421Z,8.88
2023-03-29T16:39:33.801Z,8.84
2023-03-29T16:42:03.719Z,8.79
2023-03-29T16:44:32.002Z,8.73
2023-03-29T16:47:00.982Z,8.65
2023-03-29T16:49:29.221Z,8.59
2023-03-29T16:51:59.323Z,8.54
2023-03-29T16:54:29.103Z,8.50
2023-03-29T16:56:57.395Z,8.47
2023-03-29T16:59:25.621Z,8.43
2023-03-29T17:01:53.673Z,8.40
2023-03-29T17:04:21.665Z,8.38
2023-03-29T17:06:51.134Z,8.35
2023-03-29T17:09:19.151Z,8.32
2023-03-29T17:11:48.231Z,8.30
2023-03-29T17:14:16.419Z,8.24
2023-03-29T17:16:46.124Z,8.20
2023-03-29T17:19:14.212Z,8.15
2023-03-29T17:21:42.490Z,8.12
2023-03-29T17:24:10.533Z,8.09
2023-03-29T17:26:38.500Z,8.06
2023-03-29T17:29:08.681Z,8.01
2023-03-29T17:31:37.493Z,7.98
2023-03-29T17:34:05.495Z,7.94
2023-03-29T17:36:33.384Z,7.91
2023-03-29T17:39:02.932Z,7.89
2023-03-29T17:41:31.326Z,7.85
2023-03-29T17:44:00.476Z,7.81
2023-03-29T17:46:28.804Z,7.77
2023-03-29T17:48:58.471Z,7.72
2023-03-29T17:51:29.183Z,7.68
2023-03-29T17:53:57.663Z,7.64
2023-03-29T17:56:26.075Z,7.62
2023-03-29T17:58:57.050Z,7.59
2023-03-29T18:01:26.293Z,7.55
2023-03-29T18:03:54.774Z,7.54
2023-03-29T18:06:22.708Z,7.52
2023-03-29T18:08:52.609Z,7.49
2023-03-29T18:11:23.250Z,7.47
2023-03-29T18:13:52.878Z,7.46
2023-03-29T18:16:21.931Z,7.43
2023-03-29T18:18:51.979Z,7.40
2023-03-29T18:21:21.327Z,7.39
2023-03-29T18:23:57.105Z,7.37
2023-03-29T18:26:25.728Z,7.35
2023-03-29T18:28:54.395Z,7.33
2023-03-29T18:31:22.560Z,7.32
2023-03-29T18:33:50.717Z,7.31
2023-03-29T18:36:18.828Z,7.30
2023-03-29T18:38:46.926Z,7.30
2023-03-29T18:41:15.241Z,7.29
2023-03-29T18:43:43.522Z,7.28
2023-03-29T18:46:11.851Z,7.27
2023-03-29T18:48:40.607Z,7.26
2023-03-29T18:51:10.284Z,7.26
2023-03-29T18:53:41.031Z,7.26
2023-03-29T18:56:08.984Z,7.26
2023-03-29T18:58:37.140Z,7.26
2023-03-29T19:01:06.608Z,7.26
2023-03-29T19:03:35.169Z,7.26
2023-03-29T19:06:03.977Z,7.25
2023-03-29T19:08:33.646Z,7.25
2023-03-29T19:11:03.030Z,7.24
2023-03-29T19:13:31.042Z,7.21
2023-03-29T19:15:59.088Z,7.21
2023-03-29T19:18:27.115Z,7.20
2023-03-29T19:20:55.574Z,7.18
2023-03-29T19:23:28.865Z,7.17
2023-03-29T19:26:00.945Z,7.15
2023-03-29T19:28:29.821Z,7.13
2023-03-29T19:30:59.736Z,7.11
2023-03-29T19:33:28.543Z,7.10
2023-03-29T19:35:56.873Z,7.08
2023-03-29T19:38:25.291Z,7.06
2023-03-29T19:40:53.288Z,7.05
2023-03-29T19:43:21.480Z,7.02
2023-03-29T19:45:50.829Z,6.98
2023-03-29T19:48:23.504Z,6.95
2023-03-29T19:50:52.141Z,6.91
2023-03-29T19:53:20.651Z,6.88
2023-03-29T19:55:49.042Z,6.86
2023-03-29T19:58:17.183Z,6.85
2023-03-29T20:00:46.028Z,6.83
2023-03-29T20:03:15.168Z,6.80
2023-03-29T20:05:43.408Z,6.79
2023-03-29T20:08:11.487Z,6.78
2023-03-29T20:10:39.475Z,6.77
2023-03-29T20:13:08.905Z,6.75
2023-03-29T20:15:36.952Z,6.72
2023-03-29T20:18:06.460Z,6.70
2023-03-29T20:20:35.117Z,6.70
2023-03-29T20:23:05.172Z,6.70
2023-03-29T20:25:35.504Z,6.70
2023-03-29T20:28:04.187Z,6.69
2023-03-29T20:30:32.331Z,6.67
2023-03-29T20:33:00.533Z,6.67
2023-03-29T20:35:28.565Z,6.65
2023-03-29T20:37:56.621Z,6.62
2023-03-29T20:40:24.766Z,6.60
2023-03-29T20:42:53.624Z,6.56
2023-03-29T20:45:21.884Z,6.52
2023-03-29T20:47:55.445Z,6.48
2023-03-29T20:50:29.654Z,6.44
2023-03-29T20:53:03.096Z,6.38
2023-03-29T20:55:32.604Z,6.32
2023-03-29T20:58:01.485Z,6.25
2023-03-29T21:00:32.233Z,6.20
2023-03-29T21:03:01.145Z,6.14
2023-03-29T21:05:31.230Z,6.07
2023-03-29T21:08:00.109Z,6.01
2023-03-29T21:10:29.066Z,5.96
2023-03-29T21:12:59.482Z,5.90
2023-03-29T21:15:29.608Z,5.85
2023-03-29T21:17:58.202Z,5.80
2023-03-29T21:20:27.329Z,5.76
2023-03-29T21:22:55.345Z,5.73
2023-03-29T21:25:23.403Z,5.69
2023-03-29T21:27:51.351Z,5.66
2023-03-29T21:30:19.416Z,5.63
2023-03-29T21:32:47.401Z,5.60
2023-03-29T21:35:15.484Z,5.57
2023-03-29T21:37:43.652Z,5.54
2023-03-29T21:40:13.758Z,5.50
2023-03-29T21:42:41.753Z,5.44
2023-03-29T21:45:11.539Z,5.40
2023-03-29T21:47:39.673Z,5.36
2023-03-29T21:50:10.096Z,5.34
2023-03-29T21:52:38.372Z,5.33
2023-03-29T21:55:07.462Z,5.32
2023-03-29T21:57:35.831Z,5.30
2023-03-29T22:00:10.223Z,5.31
2023-03-29T22:02:38.910Z,5.29
2023-03-29T22:05:08.313Z,5.28
2023-03-29T22:07:38.041Z,5.27
2023-03-29T22:10:08.750Z,5.27
2023-03-29T22:12:37.967Z,5.26
2023-03-29T22:15:08.207Z,5.26
2023-03-29T22:17:36.289Z,5.27
2023-03-29T22:20:12.181Z,5.27
2023-03-29T22:22:43.711Z,5.27
2023-03-29T22:25:12.506Z,5.27
2023-03-29T22:27:41.981Z,5.29
2023-03-29T22:30:12.099Z,5.30
2023-03-29T22:32:40.506Z,5.33
2023-03-29T22:35:10.304Z,5.33
2023-03-29T22:37:41.687Z,5.36
2023-03-29T22:40:12.691Z,5.38
2023-03-29T22:42:41.096Z,5.39
2023-03-29T22:45:14.547Z,5.40
2023-03-29T22:47:42.776Z,5.40
2023-03-29T22:50:11.926Z,5.39
2023-03-29T22:52:39.952Z,5.38
2023-03-29T22:55:09.230Z,5.40
2023-03-29T22:57:37.384Z,5.40
2023-03-29T23:00:08.274Z,5.40
2023-03-29T23:02:36.755Z,5.39
2023-03-29T23:05:06.265Z,5.39
2023-03-29T23:07:35.824Z,5.37
2023-03-29T23:10:06.308Z,5.37
2023-03-29T23:12:35.507Z,5.36
2023-03-29T23:15:05.764Z,5.36
2023-03-29T23:17:34.570Z,5.35
2023-03-29T23:20:05.735Z,5.35
2023-03-29T23:22:35.677Z,5.32
2023-03-29T23:25:04.070Z,5.30
2023-03-29T23:27:32.486Z,5.29
2023-03-29T23:30:01.154Z,5.28
2023-03-29T23:32:29.362Z,5.27
2023-03-29T23:34:57.958Z,5.26
2023-03-29T23:37:26.096Z,5.27
2023-03-29T23:39:54.279Z,5.26
2023-03-29T23:42:22.415Z,5.27
2023-03-29T23:44:50.437Z,5.28
2023-03-29T23:47:18.911Z,5.29
2023-03-29T23:49:47.241Z,5.30
2023-03-29T23:52:15.315Z,5.32
2023-03-29T23:54:43.361Z,5.34
2023-03-29T23:57:11.969Z,5.36
2023-03-29T23:59:42.012Z,5.36
